createdAt,value
2022-12-31T00:00:06.123Z,1.45
2022-12-31T00:02:32.828Z,1.70
2022-12-31T00:04:59.514Z,1.55
2022-12-31T00:07:26.237Z,1.40
2022-12-31T00:09:52.932Z,1.40
2022-12-31T00:12:20.379Z,1.30
2022-12-31T00:14:47.165Z,1.17
2022-12-31T00:17:14.939Z,1.30
2022-12-31T00:19:41.603Z,1.20
2022-12-31T00:22:08.236Z,1.50
2022-12-31T00:24:35.945Z,1.70
2022-12-31T00:27:04.851Z,1.23
2022-12-31T00:29:31.636Z,1.45
2022-12-31T00:31:58.331Z,1.40
2022-12-31T00:34:26.605Z,1.63
2022-12-31T00:36:53.749Z,1.17
2022-12-31T00:39:20.858Z,1.83
2022-12-31T00:41:47.647Z,1.30
2022-12-31T00:44:14.648Z,1.40
2022-12-31T00:49:07.619Z,1.50
2022-12-31T00:51:34.263Z,1.48
2022-12-31T00:54:00.916Z,1.33
2022-12-31T00:56:30.847Z,1.30
2022-12-31T00:58:58.299Z,1.40
2022-12-31T01:01:26.337Z,1.70
2022-12-31T01:04:01.932Z,1.80
2022-12-31T01:06:28.876Z,1.75
2022-12-31T01:08:55.938Z,1.48
2022-12-31T01:11:24.702Z,1.52
2022-12-31T01:13:56.549Z,2.38
2022-12-31T01:16:32.042Z,1.65
2022-12-31T01:19:02.444Z,1.88
2022-12-31T01:21:29.530Z,2.22
2022-12-31T01:23:56.325Z,2.20
2022-12-31T01:26:22.899Z,2.10
2022-12-31T01:28:49.727Z,2.50
2022-12-31T01:31:19.222Z,2.28
2022-12-31T01:33:46.462Z,2.75
2022-12-31T01:36:28.387Z,3.17
2022-12-31T01:38:59.838Z,2.60
2022-12-31T01:41:38.182Z,3.38
2022-12-31T01:44:14.128Z,3.03
2022-12-31T01:46:51.248Z,2.80
2022-12-31T01:49:17.834Z,2.40
2022-12-31T01:51:50.035Z,2.00
2022-12-31T01:54:18.929Z,2.00
2022-12-31T01:56:49.950Z,1.80
2022-12-31T02:01:46.783Z,2.47
2022-12-31T02:04:15.179Z,1.63
2022-12-31T02:06:48.544Z,2.20
2022-12-31T02:09:15.958Z,2.13
2022-12-31T02:11:42.587Z,1.83
2022-12-31T02:14:25.256Z,2.00
2022-12-31T02:17:00.838Z,2.33
2022-12-31T02:19:36.342Z,2.20
2022-12-31T02:22:29.030Z,1.90
2022-12-31T02:25:32.731Z,2.10
2022-12-31T02:28:17.990Z,2.50
2022-12-31T02:30:49.746Z,2.80
2022-12-31T02:33:22.010Z,3.88
2022-12-31T02:36:02.744Z,2.70
2022-12-31T02:38:34.071Z,2.60
2022-12-31T02:41:08.126Z,2.97
2022-12-31T02:43:49.256Z,2.70
2022-12-31T02:46:34.109Z,2.10
2022-12-31T02:49:31.224Z,2.50
2022-12-31T02:52:07.078Z,2.10
2022-12-31T02:55:03.572Z,2.20
2022-12-31T02:57:36.375Z,2.30
2022-12-31T03:00:28.195Z,2.95
2022-12-31T03:02:55.946Z,2.53
2022-12-31T03:05:29.543Z,2.50
2022-12-31T03:07:56.328Z,2.47
2022-12-31T03:10:23.142Z,2.10
2022-12-31T03:12:51.616Z,2.40
2022-12-31T03:15:25.218Z,2.40
2022-12-31T03:18:01.451Z,2.30
2022-12-31T03:20:55.365Z,2.38
2022-12-31T03:23:47.625Z,2.72
2022-12-31T03:26:14.269Z,2.22
2022-12-31T03:28:47.735Z,2.20
2022-12-31T03:31:14.953Z,2.40
2022-12-31T03:33:41.962Z,2.28
2022-12-31T03:36:12.705Z,2.85
2022-12-31T03:38:40.330Z,2.03
2022-12-31T03:41:09.458Z,2.58
2022-12-31T03:43:36.013Z,2.10
2022-12-31T03:46:02.637Z,2.33
2022-12-31T03:48:32.552Z,2.33
2022-12-31T03:50:59.218Z,2.53
2022-12-31T03:53:25.911Z,2.50
2022-12-31T03:55:53.457Z,2.60
2022-12-31T03:58:21.813Z,3.10
2022-12-31T04:00:49.209Z,3.03
2022-12-31T04:03:16.063Z,2.60
2022-12-31T04:05:43.089Z,2.55
2022-12-31T04:08:09.853Z,2.88
2022-12-31T04:10:36.553Z,2.83
2022-12-31T04:13:04.842Z,2.92
2022-12-31T04:15:32.347Z,3.35
2022-12-31T04:17:59.135Z,3.10
2022-12-31T04:20:25.855Z,3.33
2022-12-31T04:22:52.460Z,3.25
2022-12-31T04:25:19.460Z,3.35
2022-12-31T04:27:47.055Z,3.28
2022-12-31T04:30:14.618Z,3.10
2022-12-31T04:32:41.715Z,2.92
2022-12-31T04:35:09.433Z,2.70
2022-12-31T04:37:36.231Z,2.30
2022-12-31T04:40:06.244Z,2.03
2022-12-31T04:42:33.868Z,1.98
2022-12-31T04:45:00.542Z,2.30
2022-12-31T04:47:28.184Z,1.80
2022-12-31T04:49:54.853Z,2.10
2022-12-31T04:52:23.181Z,2.10
2022-12-31T04:54:53.073Z,1.95
2022-12-31T04:57:20.045Z,1.90
2022-12-31T04:59:46.785Z,2.00
2022-12-31T05:02:13.921Z,2.05
2022-12-31T05:04:40.683Z,2.30
2022-12-31T05:07:07.751Z,1.90
2022-12-31T05:09:34.511Z,1.95
2022-12-31T05:12:01.332Z,1.90
2022-12-31T05:14:28.101Z,1.80
2022-12-31T05:16:55.455Z,1.67
2022-12-31T05:19:22.140Z,2.28
2022-12-31T05:22:08.787Z,2.30
2022-12-31T05:24:36.197Z,2.58
2022-12-31T05:27:03.311Z,2.60
2022-12-31T05:29:29.983Z,2.42
2022-12-31T05:31:56.654Z,2.53
2022-12-31T05:34:23.344Z,2.50
2022-12-31T05:36:51.633Z,2.33
2022-12-31T05:39:18.232Z,2.15
2022-12-31T05:41:44.869Z,2.28
2022-12-31T05:44:11.627Z,1.67
2022-12-31T05:46:38.320Z,2.10
2022-12-31T05:49:05.055Z,1.40
2022-12-31T05:51:31.775Z,1.40
2022-12-31T05:53:58.443Z,1.48
2022-12-31T05:56:25.846Z,1.30
2022-12-31T05:58:52.692Z,2.00
2022-12-31T06:01:19.351Z,1.90
2022-12-31T06:03:46.676Z,1.90
2022-12-31T06:06:13.509Z,2.00
2022-12-31T06:08:40.158Z,1.67
2022-12-31T06:11:06.862Z,1.63
2022-12-31T06:13:33.552Z,1.77
2022-12-31T06:16:06.364Z,1.50
2022-12-31T06:18:33.261Z,1.67
2022-12-31T06:21:00.164Z,1.50
2022-12-31T06:23:26.980Z,1.80
2022-12-31T06:25:53.671Z,1.33
2022-12-31T06:28:21.221Z,1.42
2022-12-31T06:30:48.068Z,1.40
2022-12-31T06:33:14.682Z,1.58
2022-12-31T06:35:41.332Z,1.67
2022-12-31T06:38:07.914Z,2.10
2022-12-31T06:40:37.815Z,1.42
2022-12-31T06:43:04.501Z,1.58
2022-12-31T06:45:33.500Z,1.27
2022-12-31T06:48:03.227Z,1.30
2022-12-31T06:50:29.880Z,1.70
2022-12-31T06:52:57.466Z,1.80
2022-12-31T06:55:24.740Z,1.80
2022-12-31T06:57:51.706Z,1.88
2022-12-31T07:00:18.795Z,1.80
2022-12-31T07:02:48.460Z,1.90
2022-12-31T07:05:36.193Z,2.30
2022-12-31T07:08:24.266Z,2.85
2022-12-31T07:11:17.622Z,1.95
2022-12-31T07:14:00.227Z,2.95
2022-12-31T07:16:39.930Z,2.55
2022-12-31T07:19:19.506Z,2.38
2022-12-31T07:21:47.578Z,2.40
2022-12-31T07:24:14.727Z,1.98
2022-12-31T07:26:56.151Z,2.22
2022-12-31T07:29:45.091Z,2.20
2022-12-31T07:32:17.601Z,1.98
2022-12-31T07:35:00.977Z,1.63
2022-12-31T07:37:33.405Z,1.40
2022-12-31T07:40:29.168Z,1.52
2022-12-31T07:43:12.465Z,1.95
2022-12-31T07:46:12.902Z,1.58
2022-12-31T07:48:39.923Z,1.73
2022-12-31T07:51:07.023Z,1.58
2022-12-31T07:53:33.846Z,1.70
2022-12-31T07:56:01.890Z,1.30
2022-12-31T07:58:35.077Z,1.67
2022-12-31T08:01:03.221Z,1.80
2022-12-31T08:04:03.389Z,1.80
2022-12-31T08:06:38.829Z,2.13
2022-12-31T08:09:18.948Z,2.20
2022-12-31T08:11:56.645Z,2.10
2022-12-31T08:14:23.541Z,2.50
2022-12-31T08:16:50.906Z,2.47
2022-12-31T08:19:24.649Z,2.83
2022-12-31T08:22:00.308Z,3.30
2022-12-31T08:24:43.149Z,3.03
2022-12-31T08:27:29.560Z,2.75
2022-12-31T08:30:12.502Z,2.50
2022-12-31T08:32:47.748Z,2.50
2022-12-31T08:35:14.311Z,2.38
2022-12-31T08:37:55.916Z,2.38
2022-12-31T08:40:37.993Z,2.10
2022-12-31T08:43:15.564Z,1.92
2022-12-31T08:45:53.270Z,2.40
2022-12-31T08:48:28.864Z,2.55
2022-12-31T08:50:55.757Z,2.17
2022-12-31T08:53:22.889Z,1.77
2022-12-31T08:55:56.913Z,2.15
2022-12-31T08:58:54.012Z,1.70
2022-12-31T09:01:24.866Z,2.20
2022-12-31T09:03:57.575Z,1.65
2022-12-31T09:06:27.508Z,1.67
2022-12-31T09:09:20.001Z,1.75
2022-12-31T09:12:09.437Z,1.75
2022-12-31T09:14:43.923Z,2.25
2022-12-31T09:17:39.312Z,1.60
2022-12-31T09:20:06.891Z,1.50
2022-12-31T09:22:33.653Z,1.67
2022-12-31T09:25:00.537Z,1.60
2022-12-31T09:28:04.837Z,1.90
2022-12-31T09:30:45.597Z,1.77
2022-12-31T09:33:31.401Z,1.75
2022-12-31T09:36:21.073Z,2.55
2022-12-31T09:38:52.511Z,1.40
2022-12-31T09:41:59.418Z,1.52
2022-12-31T09:45:03.581Z,2.10
2022-12-31T09:47:55.331Z,1.70
2022-12-31T09:50:31.006Z,2.50
2022-12-31T09:53:23.788Z,2.10
2022-12-31T09:56:04.343Z,2.10
2022-12-31T09:59:14.912Z,2.17
2022-12-31T10:02:02.542Z,1.88
2022-12-31T10:04:42.233Z,1.92
2022-12-31T10:07:14.695Z,2.20
2022-12-31T10:09:50.484Z,2.00
2022-12-31T10:12:38.316Z,2.20
2022-12-31T10:15:13.906Z,2.47
2022-12-31T10:17:43.418Z,2.20
2022-12-31T10:20:33.677Z,3.08
2022-12-31T10:23:20.538Z,1.90
2022-12-31T10:26:05.429Z,2.13
2022-12-31T10:28:49.011Z,1.90
2022-12-31T10:31:37.819Z,1.98
2022-12-31T10:34:13.646Z,2.33
2022-12-31T10:36:43.153Z,2.10
2022-12-31T10:39:24.495Z,2.20
2022-12-31T10:42:13.151Z,2.20
2022-12-31T10:44:45.644Z,2.25
2022-12-31T10:47:18.263Z,2.20
2022-12-31T10:50:30.783Z,4.25
2022-12-31T10:53:25.347Z,2.63
2022-12-31T10:56:01.030Z,3.60
2022-12-31T10:58:39.864Z,3.70
2022-12-31T11:01:30.594Z,2.67
2022-12-31T11:04:18.955Z,3.53
2022-12-31T11:07:26.322Z,2.58
2022-12-31T11:10:04.978Z,2.58
2022-12-31T11:13:05.629Z,3.22
2022-12-31T11:15:50.727Z,2.38
2022-12-31T11:18:42.125Z,2.17
2022-12-31T11:21:27.843Z,2.50
2022-12-31T11:24:42.166Z,2.20
2022-12-31T11:27:39.670Z,3.25
2022-12-31T11:30:21.351Z,2.22
2022-12-31T11:32:57.858Z,2.90
2022-12-31T11:35:41.891Z,2.65
2022-12-31T11:38:25.856Z,2.40
2022-12-31T11:41:16.406Z,2.47
2022-12-31T11:44:10.679Z,2.65
2022-12-31T11:47:11.287Z,2.20
2022-12-31T11:50:05.793Z,2.60
2022-12-31T11:53:00.050Z,2.95
2022-12-31T11:56:07.418Z,2.70
2022-12-31T11:58:34.085Z,2.60
2022-12-31T12:01:09.262Z,2.30
2022-12-31T12:03:42.382Z,2.50
2022-12-31T12:06:14.616Z,2.40
2022-12-31T12:08:42.574Z,2.40
2022-12-31T12:11:25.798Z,2.80
2022-12-31T12:13:52.424Z,2.05
2022-12-31T12:16:21.240Z,2.45
2022-12-31T12:18:51.589Z,3.22
2022-12-31T12:21:24.219Z,3.47
2022-12-31T12:24:05.507Z,2.53
2022-12-31T12:26:41.983Z,2.30
2022-12-31T12:29:21.122Z,2.10
2022-12-31T12:32:22.652Z,2.30
2022-12-31T12:34:50.476Z,2.13
2022-12-31T12:37:29.632Z,2.20
2022-12-31T12:40:21.802Z,1.90
2022-12-31T12:42:50.270Z,2.33
2022-12-31T12:45:21.112Z,3.00
2022-12-31T12:47:53.527Z,2.63
2022-12-31T12:50:23.652Z,2.30
2022-12-31T12:53:27.588Z,2.77
2022-12-31T12:56:04.630Z,2.30
2022-12-31T12:58:46.268Z,2.10
2022-12-31T13:01:25.624Z,2.50
2022-12-31T13:04:33.474Z,2.60
2022-12-31T13:07:16.264Z,2.10
2022-12-31T13:09:56.258Z,2.45
2022-12-31T13:15:47.946Z,2.70
2022-12-31T13:18:39.310Z,2.60
2022-12-31T13:21:48.482Z,3.10
2022-12-31T13:24:45.890Z,3.17
2022-12-31T13:27:27.627Z,3.30
2022-12-31T13:29:59.323Z,3.20
2022-12-31T13:32:53.429Z,3.20
2022-12-31T13:35:47.065Z,2.30
2022-12-31T13:38:24.305Z,2.88
2022-12-31T13:41:01.380Z,2.25
2022-12-31T13:43:55.912Z,2.40
2022-12-31T13:46:29.792Z,2.28
2022-12-31T13:48:59.811Z,2.50
2022-12-31T13:51:46.145Z,2.75
2022-12-31T13:54:15.737Z,2.40
2022-12-31T13:56:44.991Z,2.50
2022-12-31T13:59:18.166Z,2.67
2022-12-31T14:02:06.071Z,2.78
2022-12-31T14:05:15.944Z,2.58
2022-12-31T14:07:54.839Z,2.30
2022-12-31T14:10:49.468Z,2.10
2022-12-31T14:13:15.967Z,2.33
2022-12-31T14:16:08.307Z,2.60
2022-12-31T14:18:46.147Z,2.35
2022-12-31T14:21:29.847Z,2.50
2022-12-31T14:24:03.709Z,2.30
2022-12-31T14:26:38.897Z,2.13
2022-12-31T14:29:19.097Z,2.28
2022-12-31T14:31:48.849Z,2.50
2022-12-31T14:34:40.641Z,2.60
2022-12-31T14:37:30.451Z,2.38
2022-12-31T14:40:16.910Z,2.45
2022-12-31T14:43:02.259Z,2.30
2022-12-31T14:45:56.345Z,2.28
2022-12-31T14:48:44.084Z,2.70
2022-12-31T14:51:12.363Z,2.35
2022-12-31T14:53:38.965Z,2.25
2022-12-31T14:56:26.844Z,2.40
2022-12-31T14:59:27.721Z,2.60
2022-12-31T15:01:56.873Z,2.28
2022-12-31T15:04:46.420Z,2.70
2022-12-31T15:07:30.312Z,3.35
2022-12-31T15:10:09.838Z,4.20
2022-12-31T15:12:49.388Z,3.63
2022-12-31T15:15:23.094Z,3.30
2022-12-31T15:17:58.467Z,3.20
2022-12-31T15:20:45.168Z,2.28
2022-12-31T15:23:23.993Z,3.03
2022-12-31T15:25:59.829Z,3.88
2022-12-31T15:28:36.578Z,3.30
2022-12-31T15:31:20.326Z,3.03
2022-12-31T15:34:05.436Z,2.70
2022-12-31T15:36:38.624Z,2.47
2022-12-31T15:39:06.999Z,2.55
2022-12-31T15:42:10.375Z,2.40
2022-12-31T15:44:49.111Z,1.98
2022-12-31T15:47:25.794Z,2.15
2022-12-31T15:49:54.737Z,3.10
2022-12-31T15:52:28.092Z,2.50
2022-12-31T15:54:56.753Z,5.20
2022-12-31T15:57:37.307Z,3.47
2022-12-31T16:00:23.388Z,2.85
2022-12-31T16:02:55.458Z,2.72
2022-12-31T16:05:27.768Z,3.10
2022-12-31T16:07:56.324Z,3.03
2022-12-31T16:10:28.008Z,3.15
2022-12-31T16:12:56.825Z,3.30
2022-12-31T16:15:27.230Z,3.85
2022-12-31T16:18:02.995Z,4.53
2022-12-31T16:20:31.825Z,3.97
2022-12-31T16:23:04.779Z,2.92
2022-12-31T16:25:34.126Z,2.90
2022-12-31T16:28:03.740Z,3.25
2022-12-31T16:30:33.594Z,4.10
2022-12-31T16:33:06.396Z,5.13
2022-12-31T16:35:39.018Z,4.85
2022-12-31T16:38:19.751Z,4.88
2022-12-31T16:41:01.387Z,3.78
2022-12-31T16:43:37.466Z,4.93
2022-12-31T16:46:27.040Z,4.15
2022-12-31T16:49:16.952Z,4.43
2022-12-31T16:51:44.228Z,4.97
2022-12-31T16:54:19.643Z,4.82
2022-12-31T16:56:46.414Z,4.72
2022-12-31T16:59:29.312Z,5.75
2022-12-31T17:02:01.609Z,4.72
2022-12-31T17:04:28.667Z,4.90
2022-12-31T17:06:55.269Z,6.13
2022-12-31T17:09:31.049Z,8.70
2022-12-31T17:12:12.122Z,7.13
2022-12-31T17:14:49.515Z,6.07
2022-12-31T17:17:29.986Z,3.45
2022-12-31T17:19:59.264Z,2.67
2022-12-31T17:22:35.780Z,3.38
2022-12-31T17:25:05.833Z,2.95
2022-12-31T17:27:33.679Z,3.28
2022-12-31T17:30:35.261Z,3.85
2022-12-31T17:33:03.212Z,4.70
2022-12-31T17:35:35.551Z,4.10
2022-12-31T17:38:20.892Z,3.65
2022-12-31T17:41:04.306Z,3.35
2022-12-31T17:43:35.364Z,3.28
2022-12-31T17:46:03.656Z,5.35
2022-12-31T17:48:30.262Z,4.72
2022-12-31T17:51:02.024Z,4.57
2022-12-31T17:53:28.620Z,3.20
2022-12-31T17:56:00.451Z,2.53
2022-12-31T17:58:38.317Z,2.85
2022-12-31T18:01:10.123Z,2.78
2022-12-31T18:03:36.840Z,2.65
2022-12-31T18:06:05.417Z,3.30
2022-12-31T18:08:32.111Z,3.08
2022-12-31T18:10:58.751Z,2.60
2022-12-31T18:13:27.111Z,2.75
2022-12-31T18:15:54.929Z,2.40
2022-12-31T18:18:29.824Z,2.65
2022-12-31T18:20:59.957Z,2.20
2022-12-31T18:23:29.823Z,2.20
2022-12-31T18:25:56.460Z,2.75
2022-12-31T18:28:23.420Z,2.25
2022-12-31T18:30:50.266Z,2.60
2022-12-31T18:33:22.223Z,2.30
2022-12-31T18:36:10.007Z,2.42
2022-12-31T18:38:37.288Z,4.68
2022-12-31T18:41:04.206Z,3.03
2022-12-31T18:43:31.051Z,3.00
2022-12-31T18:45:57.907Z,2.38
2022-12-31T18:48:24.735Z,3.00
2022-12-31T18:50:51.324Z,2.75
2022-12-31T18:53:21.011Z,3.80
2022-12-31T18:55:53.657Z,3.13
2022-12-31T18:58:20.435Z,2.80
2022-12-31T19:00:48.468Z,2.30
2022-12-31T19:03:17.322Z,2.95
2022-12-31T19:05:45.651Z,3.05
2022-12-31T19:08:12.229Z,2.90
2022-12-31T19:10:38.808Z,2.78
2022-12-31T19:13:05.377Z,2.50
2022-12-31T19:15:42.624Z,2.60
2022-12-31T19:18:09.728Z,2.75
2022-12-31T19:20:36.686Z,2.75
2022-12-31T19:23:03.617Z,2.78
2022-12-31T19:25:35.518Z,2.47
2022-12-31T19:28:03.915Z,2.50
2022-12-31T19:30:33.036Z,2.72
2022-12-31T19:33:00.627Z,2.38
2022-12-31T19:35:27.415Z,2.75
2022-12-31T19:37:55.261Z,2.50
2022-12-31T19:40:28.847Z,2.92
2022-12-31T19:42:55.961Z,3.28
2022-12-31T19:45:25.356Z,3.00
2022-12-31T19:47:52.946Z,3.22
2022-12-31T19:50:23.191Z,3.05
2022-12-31T19:52:52.253Z,3.15
2022-12-31T19:55:20.977Z,2.65
2022-12-31T19:57:48.526Z,2.85
2022-12-31T20:00:17.575Z,2.20
2022-12-31T20:02:46.064Z,2.88
2022-12-31T20:05:14.867Z,2.60
2022-12-31T20:07:41.648Z,3.28
2022-12-31T20:10:08.560Z,2.80
2022-12-31T20:12:39.185Z,2.70
2022-12-31T20:15:10.726Z,2.55
2022-12-31T20:17:37.297Z,1.90
2022-12-31T20:20:05.284Z,2.22
2022-12-31T20:22:31.928Z,2.67
2022-12-31T20:24:58.631Z,2.58
2022-12-31T20:27:25.298Z,2.50
2022-12-31T20:29:51.930Z,2.67
2022-12-31T20:32:18.517Z,2.83
2022-12-31T20:34:45.141Z,2.50
2022-12-31T20:37:11.748Z,2.72
2022-12-31T20:39:38.344Z,2.10
2022-12-31T20:42:05.047Z,2.50
2022-12-31T20:44:31.689Z,2.80
2022-12-31T20:46:58.459Z,3.92
2022-12-31T20:49:52.131Z,2.50
2022-12-31T20:52:11.719Z,2.15
2022-12-31T20:54:38.295Z,2.60
2022-12-31T20:57:04.894Z,2.72
2022-12-31T20:59:31.499Z,3.95
2022-12-31T21:04:45.506Z,3.22
2022-12-31T21:07:12.207Z,3.95
2022-12-31T21:09:38.845Z,2.63
2022-12-31T21:12:24.055Z,3.53
2022-12-31T21:14:50.619Z,2.80
2022-12-31T21:17:17.146Z,2.10
2022-12-31T21:19:43.755Z,2.25
2022-12-31T21:22:10.384Z,1.73
2022-12-31T21:24:37.015Z,2.08
2022-12-31T21:27:03.623Z,2.78
2022-12-31T21:29:34.557Z,3.05
2022-12-31T21:32:01.441Z,3.10
2022-12-31T21:34:28.240Z,2.80
2022-12-31T21:36:54.809Z,8.40
2022-12-31T21:39:21.409Z,3.78
2022-12-31T21:41:54.033Z,4.18
2022-12-31T21:44:25.819Z,3.92
2022-12-31T21:47:42.536Z,3.22
2022-12-31T21:50:08.668Z,3.00
2022-12-31T21:52:35.616Z,2.72
2022-12-31T21:55:23.387Z,2.67
2022-12-31T21:58:24.660Z,2.25
2022-12-31T22:00:57.082Z,2.40
2022-12-31T22:03:29.715Z,2.83
2022-12-31T22:06:00.266Z,2.80
2022-12-31T22:08:28.259Z,2.13
2022-12-31T22:10:55.220Z,2.50
2022-12-31T22:13:22.639Z,2.65
2022-12-31T22:15:55.403Z,2.00
2022-12-31T22:18:25.702Z,2.65
2022-12-31T22:21:04.223Z,1.90
2022-12-31T22:23:32.236Z,2.00
2022-12-31T22:25:58.978Z,2.00
2022-12-31T22:28:41.127Z,3.28
2022-12-31T22:31:12.541Z,4.50
2022-12-31T22:33:39.141Z,3.25
2022-12-31T22:36:08.098Z,3.58
2022-12-31T22:38:34.914Z,3.20
2022-12-31T22:41:13.201Z,3.58
2022-12-31T22:43:42.460Z,3.67
2022-12-31T22:46:14.292Z,2.75
2022-12-31T22:48:42.025Z,2.92
2022-12-31T22:51:10.147Z,4.05
2022-12-31T22:53:38.574Z,4.00
2022-12-31T22:56:05.781Z,3.55
2022-12-31T22:58:32.376Z,3.90
2022-12-31T23:00:58.971Z,6.75
2022-12-31T23:03:25.554Z,7.78
2022-12-31T23:05:52.681Z,33.42
2022-12-31T23:08:23.224Z,48.20
2022-12-31T23:10:59.756Z,39.55
2022-12-31T23:13:55.709Z,42.15
2022-12-31T23:16:41.931Z,57.33
2022-12-31T23:19:27.334Z,56.03
2022-12-31T23:22:12.821Z,51.65
2022-12-31T23:24:39.813Z,52.90
2022-12-31T23:27:07.558Z,43.35
2022-12-31T23:29:34.179Z,37.00
2022-12-31T23:32:00.793Z,26.15
2022-12-31T23:34:27.504Z,20.90
2022-12-31T23:36:54.177Z,23.13
2022-12-31T23:39:20.890Z,17.55
2022-12-31T23:41:47.555Z,19.23
2022-12-31T23:44:14.561Z,18.08
2022-12-31T23:46:41.423Z,20.95
2022-12-31T23:49:08.173Z,21.08
2022-12-31T23:51:36.574Z,24.10
2022-12-31T23:54:04.239Z,23.95
2022-12-31T23:56:30.932Z,24.90
2022-12-31T23:58:59.197Z,24.88
